sensor_id;sensor_type;location;lat;lon;timestamp;pressure;altitude;pressure_sealevel;temperature;humidity
42945;BME280;28584;42.636;23.294;2023-06-22T00:01:16;163218.16;;;17.49;100.00
42945;BME280;28584;42.636;23.294;2023-06-22T00:03:41;163216.81;;;17.48;100.00
42945;BME280;28584;42.636;23.294;2023-06-22T00:06:06;163188.53;;;17.38;100.00
42945;BME280;28584;42.636;23.294;2023-06-22T00:08:32;163167.06;;;17.30;100.00
42945;BME280;28584;42.636;23.294;2023-06-22T00:10:57;163140.22;;;17.20;100.00
42945;BME280;28584;42.636;23.294;2023-06-22T00:13:22;163134.88;;;17.18;100.00
42945;BME280;28584;42.636;23.294;2023-06-22T00:15:48;163118.75;;;17.12;100.00
42945;BME280;28584;42.636;23.294;2023-06-22T00:18:13;163093.25;;;17.02;100.00
42945;BME280;28584;42.636;23.294;2023-06-22T00:20:39;163059.69;;;16.90;100.00
42945;BME280;28584;42.636;23.294;2023-06-22T00:23:06;163042.22;;;16.83;100.00
42945;BME280;28584;42.636;23.294;2023-06-22T00:25:40;163018.09;;;16.74;100.00
42945;BME280;28584;42.636;23.294;2023-06-22T00:28:05;162997.94;;;16.67;100.00
42945;BME280;28584;42.636;23.294;2023-06-22T00:30:32;163030.13;;;16.79;100.00
42945;BME280;28584;42.636;23.294;2023-06-22T00:32:58;163014.06;;;16.73;100.00
42945;BME280;28584;42.636;23.294;2023-06-22T00:35:24;162973.78;;;16.58;100.00
42945;BME280;28584;42.636;23.294;2023-06-22T00:37:54;162980.47;;;16.60;100.00
42945;BME280;28584;42.636;23.294;2023-06-22T00:40:25;162973.78;;;16.58;100.00
42945;BME280;28584;42.636;23.294;2023-06-22T00:42:51;162945.63;;;16.47;100.00
42945;BME280;28584;42.636;23.294;2023-06-22T00:45:16;162963.03;;;16.54;100.00
42945;BME280;28584;42.636;23.294;2023-06-22T00:47:42;162999.31;;;16.67;100.00
42945;BME280;28584;42.636;23.294;2023-06-22T00:50:13;163094.56;;;17.03;100.00
42945;BME280;28584;42.636;23.294;2023-06-22T00:52:43;163086.50;;;17.00;100.00
42945;BME280;28584;42.636;23.294;2023-06-22T00:55:09;163078.50;;;16.97;100.00
42945;BME280;28584;42.636;23.294;2023-06-22T00:57:35;163091.91;;;17.02;100.00
42945;BME280;28584;42.636;23.294;2023-06-22T01:00:02;163195.28;;;17.40;100.00
42945;BME280;28584;42.636;23.294;2023-06-22T01:02:31;163219.47;;;17.49;100.00
42945;BME280;28584;42.636;23.294;2023-06-22T01:04:57;163203.34;;;17.43;100.00
42945;BME280;28584;42.636;23.294;2023-06-22T01:07:30;163167.06;;;17.30;100.00
42945;BME280;28584;42.636;23.294;2023-06-22T01:12:45;163101.25;;;17.05;100.00
42945;BME280;28584;42.636;23.294;2023-06-22T01:15:40;163101.25;;;17.05;100.00
42945;BME280;28584;42.636;23.294;2023-06-22T01:18:09;163077.13;;;16.96;100.00
42945;BME280;28584;42.636;23.294;2023-06-22T01:20:37;163040.88;;;16.83;100.00
42945;BME280;28584;42.636;23.294;2023-06-22T01:28:39;162952.31;;;16.50;100.00
42945;BME280;28584;42.636;23.294;2023-06-22T01:31:08;162930.81;;;16.41;100.00
42945;BME280;28584;42.636;23.294;2023-06-22T01:33:39;162934.88;;;16.43;100.00
42945;BME280;28584;42.636;23.294;2023-06-22T01:36:06;162957.72;;;16.52;100.00
42945;BME280;28584;42.636;23.294;2023-06-22T01:38:32;162946.94;;;16.48;100.00
42945;BME280;28584;42.636;23.294;2023-06-22T01:40:59;162973.78;;;16.58;100.00
42945;BME280;28584;42.636;23.294;2023-06-22T01:43:27;162965.72;;;16.55;100.00
42945;BME280;28584;42.636;23.294;2023-06-22T01:45:54;162968.44;;;16.56;100.00
42945;BME280;28584;42.636;23.294;2023-06-22T01:48:19;162957.72;;;16.52;100.00
42945;BME280;28584;42.636;23.294;2023-06-22T01:50:45;162924.06;;;16.39;100.00
42945;BME280;28584;42.636;23.294;2023-06-22T01:53:11;162903.97;;;16.31;100.00
42945;BME280;28584;42.636;23.294;2023-06-22T01:55:36;162893.25;;;16.27;100.00
42945;BME280;28584;42.636;23.294;2023-06-22T01:58:01;162844.91;;;16.09;100.00
42945;BME280;28584;42.636;23.294;2023-06-22T02:00:28;162869.06;;;16.18;100.00
42945;BME280;28584;42.636;23.294;2023-06-22T02:03:03;162877.13;;;16.21;100.00
42945;BME280;28584;42.636;23.294;2023-06-22T02:05:38;162948.28;;;16.48;100.00
42945;BME280;28584;42.636;23.294;2023-06-22T02:08:10;162987.22;;;16.63;100.00
42945;BME280;28584;42.636;23.294;2023-06-22T02:10:38;162930.81;;;16.41;100.00
42945;BME280;28584;42.636;23.294;2023-06-22T02:13:07;162924.06;;;16.39;100.00
42945;BME280;28584;42.636;23.294;2023-06-22T02:15:34;162925.41;;;16.39;100.00
42945;BME280;28584;42.636;23.294;2023-06-22T02:18:00;162932.16;;;16.42;100.00
42945;BME280;28584;42.636;23.294;2023-06-22T02:20:26;162891.88;;;16.27;100.00
42945;BME280;28584;42.636;23.294;2023-06-22T02:22:51;162870.44;;;16.19;100.00
42945;BME280;28584;42.636;23.294;2023-06-22T02:25:17;162863.69;;;16.16;100.00
42945;BME280;28584;42.636;23.294;2023-06-22T02:27:42;162887.84;;;16.25;100.00
42945;BME280;28584;42.636;23.294;2023-06-22T02:30:08;162870.44;;;16.19;100.00
42945;BME280;28584;42.636;23.294;2023-06-22T02:32:37;162852.97;;;16.12;100.00
42945;BME280;28584;42.636;23.294;2023-06-22T02:35:02;162855.69;;;16.13;100.00
42945;BME280;28584;42.636;23.294;2023-06-22T02:37:30;162822.09;;;16.01;100.00
42945;BME280;28584;42.636;23.294;2023-06-22T02:39:56;162810.06;;;15.96;100.00
42945;BME280;28584;42.636;23.294;2023-06-22T02:42:21;162793.97;;;15.90;100.00
42945;BME280;28584;42.636;23.294;2023-06-22T02:44:47;162826.13;;;16.02;100.00
42945;BME280;28584;42.636;23.294;2023-06-22T02:47:13;162879.81;;;16.22;100.00
42945;BME280;28584;42.636;23.294;2023-06-22T02:49:38;162894.56;;;16.28;100.00
42945;BME280;28584;42.636;23.294;2023-06-22T02:52:04;162960.38;;;16.53;100.00
42945;BME280;28584;42.636;23.294;2023-06-22T02:54:29;163024.78;;;16.77;100.00
42945;BME280;28584;42.636;23.294;2023-06-22T02:56:54;163035.53;;;16.81;100.00
42945;BME280;28584;42.636;23.294;2023-06-22T02:59:20;162997.94;;;16.67;100.00
42945;BME280;28584;42.636;23.294;2023-06-22T03:01:51;163012.72;;;16.72;100.00
42945;BME280;28584;42.636;23.294;2023-06-22T03:04:17;163043.59;;;16.84;100.00
42945;BME280;28584;42.636;23.294;2023-06-22T03:06:43;163101.25;;;17.05;100.00
42945;BME280;28584;42.636;23.294;2023-06-22T03:09:08;163144.25;;;17.21;100.00
42945;BME280;28584;42.636;23.294;2023-06-22T03:11:34;163159.00;;;17.27;100.00
42945;BME280;28584;42.636;23.294;2023-06-22T03:14:02;163193.94;;;17.40;100.00
42945;BME280;28584;42.636;23.294;2023-06-22T03:16:28;163196.59;;;17.41;100.00
42945;BME280;28584;42.636;23.294;2023-06-22T03:18:53;163218.16;;;17.49;100.00
42945;BME280;28584;42.636;23.294;2023-06-22T03:21:22;163265.16;;;17.66;100.00
42945;BME280;28584;42.636;23.294;2023-06-22T03:23:48;163357.84;;;18.01;100.00
42945;BME280;28584;42.636;23.294;2023-06-22T03:26:16;163416.94;;;18.23;100.00
42945;BME280;28584;42.636;23.294;2023-06-22T03:28:42;163474.78;;;18.44;100.00
42945;BME280;28584;42.636;23.294;2023-06-22T03:31:07;163502.97;;;18.55;100.00
42945;BME280;28584;42.636;23.294;2023-06-22T03:33:33;163507.00;;;18.56;100.00
42945;BME280;28584;42.636;23.294;2023-06-22T03:35:58;163598.41;;;18.90;100.00
42945;BME280;28584;42.636;23.294;2023-06-22T03:38:24;163681.75;;;19.22;100.00
42945;BME280;28584;42.636;23.294;2023-06-22T03:40:49;163726.16;;;19.38;100.00
42945;BME280;28584;42.636;23.294;2023-06-22T03:43:15;163817.59;;;19.72;100.00
42945;BME280;28584;42.636;23.294;2023-06-22T03:45:40;163864.69;;;19.90;100.00
42945;BME280;28584;42.636;23.294;2023-06-22T03:48:05;163696.59;;;19.27;100.00
42945;BME280;28584;42.636;23.294;2023-06-22T03:50:31;163666.97;;;19.16;100.00
42945;BME280;28584;42.636;23.294;2023-06-22T03:52:56;163692.53;;;19.26;100.00
42945;BME280;28584;42.636;23.294;2023-06-22T03:55:22;163677.72;;;19.20;100.00
42945;BME280;28584;42.636;23.294;2023-06-22T03:57:47;163630.63;;;19.02;100.00
42945;BME280;28584;42.636;23.294;2023-06-22T04:00:13;163609.16;;;18.94;100.00
42945;BME280;28584;42.636;23.294;2023-06-22T04:02:41;163610.50;;;18.95;100.00
42945;BME280;28584;42.636;23.294;2023-06-22T04:05:06;163723.47;;;19.37;100.00
42945;BME280;28584;42.636;23.294;2023-06-22T04:07:31;163810.88;;;19.70;100.00
42945;BME280;28584;42.636;23.294;2023-06-22T04:09:57;163895.59;;;20.01;100.00
42945;BME280;28584;42.636;23.294;2023-06-22T04:12:23;163968.31;;;20.28;100.00
42945;BME280;28584;42.636;23.294;2023-06-22T04:14:48;164053.09;;;20.60;100.00
42945;BME280;28584;42.636;23.294;2023-06-22T04:17:14;164136.53;;;20.91;100.00
42945;BME280;28584;42.636;23.294;2023-06-22T04:19:40;164218.69;;;21.21;100.00
42945;BME280;28584;42.636;23.294;2023-06-22T04:22:05;164290.03;;;21.48;100.00
42945;BME280;28584;42.636;23.294;2023-06-22T04:24:33;164312.91;;;21.56;100.00
42945;BME280;28584;42.636;23.294;2023-06-22T04:26:58;164385.72;;;21.84;100.00
42945;BME280;28584;42.636;23.294;2023-06-22T04:29:28;164485.41;;;22.21;100.00
42945;BME280;28584;42.636;23.294;2023-06-22T04:31:58;164556.78;;;22.47;100.00
42945;BME280;28584;42.636;23.294;2023-06-22T04:34:24;164674.06;;;22.91;100.00
42945;BME280;28584;42.636;23.294;2023-06-22T04:36:52;164860.16;;;23.60;97.74
42945;BME280;28584;42.636;23.294;2023-06-22T04:39:18;164621.53;;;22.71;95.36
42945;BME280;28584;42.636;23.294;2023-06-22T04:41:44;164571.66;;;22.53;100.00
42945;BME280;28584;42.636;23.294;2023-06-22T04:46:35;164710.44;;;23.04;98.27
42945;BME280;28584;42.636;23.294;2023-06-22T04:49:07;164795.44;;;23.36;94.80
42945;BME280;28584;42.636;23.294;2023-06-22T04:51:43;164938.34;;;23.89;84.09
42945;BME280;28584;42.636;23.294;2023-06-22T04:54:09;165063.84;;;24.36;77.00
42945;BME280;28584;42.636;23.294;2023-06-22T04:56:34;165166.41;;;24.74;73.01
42945;BME280;28584;42.636;23.294;2023-06-22T04:59:01;165229.81;;;24.97;70.75
42945;BME280;28584;42.636;23.294;2023-06-22T05:01:28;165258.19;;;25.08;69.14
42945;BME280;28584;42.636;23.294;2023-06-22T05:03:53;165177.22;;;24.78;72.89
42945;BME280;28584;42.636;23.294;2023-06-22T05:06:23;165066.56;;;24.37;77.44
42945;BME280;28584;42.636;23.294;2023-06-22T05:08:53;165100.28;;;24.49;78.85
42945;BME280;28584;42.636;23.294;2023-06-22T05:11:26;164947.81;;;23.92;80.58
42945;BME280;28584;42.636;23.294;2023-06-22T05:13:52;165096.25;;;24.48;77.26
42945;BME280;28584;42.636;23.294;2023-06-22T05:16:18;165329.78;;;25.34;70.80
42945;BME280;28584;42.636;23.294;2023-06-22T05:18:49;165432.38;;;25.72;65.74
42945;BME280;28584;42.636;23.294;2023-06-22T05:21:14;165354.09;;;25.43;66.47
42945;BME280;28584;42.636;23.294;2023-06-22T05:23:40;165124.53;;;24.58;71.26
42945;BME280;28584;42.636;23.294;2023-06-22T05:26:05;165084.09;;;24.43;71.19
42945;BME280;28584;42.636;23.294;2023-06-22T05:28:30;164997.78;;;24.11;83.35
42945;BME280;28584;42.636;23.294;2023-06-22T05:30:56;165281.16;;;25.16;71.78
42945;BME280;28584;42.636;23.294;2023-06-22T05:33:21;165217.72;;;24.93;68.39
42945;BME280;28584;42.636;23.294;2023-06-22T05:35:46;165445.91;;;25.77;66.89
42945;BME280;28584;42.636;23.294;2023-06-22T05:38:12;165705.28;;;26.74;61.75
42945;BME280;28584;42.636;23.294;2023-06-22T05:40:37;165767.44;;;26.97;59.52
42945;BME280;28584;42.636;23.294;2023-06-22T05:43:02;165901.28;;;27.46;58.16
42945;BME280;28584;42.636;23.294;2023-06-22T05:45:28;165221.78;;;24.94;64.21
42945;BME280;28584;42.636;23.294;2023-06-22T05:47:53;165065.19;;;24.36;67.65
42945;BME280;28584;42.636;23.294;2023-06-22T05:50:19;165108.34;;;24.52;67.72
42945;BME280;28584;42.636;23.294;2023-06-22T05:52:44;165219.03;;;24.93;68.57
42945;BME280;28584;42.636;23.294;2023-06-22T05:55:09;165264.94;;;25.10;68.50
42945;BME280;28584;42.636;23.294;2023-06-22T05:57:35;165513.47;;;26.02;63.16
42945;BME280;28584;42.636;23.294;2023-06-22T06:00:00;165535.03;;;26.10;63.72
42945;BME280;28584;42.636;23.294;2023-06-22T06:02:25;165526.94;;;26.07;62.89
42945;BME280;28584;42.636;23.294;2023-06-22T06:04:51;165616.09;;;26.40;62.04
42945;BME280;28584;42.636;23.294;2023-06-22T06:07:18;165685.03;;;26.66;59.41
42945;BME280;28584;42.636;23.294;2023-06-22T06:09:43;166023.00;;;27.91;57.62
42945;BME280;28584;42.636;23.294;2023-06-22T06:12:08;165782.31;;;27.02;58.21
42945;BME280;28584;42.636;23.294;2023-06-22T06:14:34;166054.09;;;28.03;56.07
42945;BME280;28584;42.636;23.294;2023-06-22T06:16:59;166422.09;;;29.39;53.32
42945;BME280;28584;42.636;23.294;2023-06-22T06:19:24;166355.75;;;29.15;53.49
42945;BME280;28584;42.636;23.294;2023-06-22T06:21:50;166663.09;;;30.28;50.07
42945;BME280;28584;42.636;23.294;2023-06-22T06:24:16;166858.16;;;31.00;48.83
42945;BME280;28584;42.636;23.294;2023-06-22T06:26:41;167047.84;;;31.71;48.22
42945;BME280;28584;42.636;23.294;2023-06-22T06:29:07;166392.31;;;29.28;51.09
42945;BME280;28584;42.636;23.294;2023-06-22T06:31:32;166029.75;;;27.94;53.23
42945;BME280;28584;42.636;23.294;2023-06-22T06:33:58;166023.00;;;27.91;54.70
42945;BME280;28584;42.636;23.294;2023-06-22T06:36:23;166148.75;;;28.38;54.55
42945;BME280;28584;42.636;23.294;2023-06-22T06:38:48;166506.03;;;29.70;51.42
42945;BME280;28584;42.636;23.294;2023-06-22T06:41:15;166367.94;;;29.19;52.86
42945;BME280;28584;42.636;23.294;2023-06-22T06:43:40;166543.91;;;29.84;50.87
42945;BME280;28584;42.636;23.294;2023-06-22T06:46:08;167075.00;;;31.81;47.30
42945;BME280;28584;42.636;23.294;2023-06-22T06:48:33;167481.72;;;33.31;44.14
42945;BME280;28584;42.636;23.294;2023-06-22T06:50:59;167793.84;;;34.46;42.33
42945;BME280;28584;42.636;23.294;2023-06-22T06:53:24;167357.00;;;32.85;42.67
42945;BME280;28584;42.636;23.294;2023-06-22T06:55:50;167655.41;;;33.95;42.61
42945;BME280;28584;42.636;23.294;2023-06-22T06:58:15;167188.81;;;32.23;44.85
42945;BME280;28584;42.636;23.294;2023-06-22T07:00:41;167272.91;;;32.54;45.15
42945;BME280;28584;42.636;23.294;2023-06-22T07:03:07;167704.28;;;34.13;41.89
42945;BME280;28584;42.636;23.294;2023-06-22T07:05:32;167533.28;;;33.50;42.69
42945;BME280;28584;42.636;23.294;2023-06-22T07:07:57;167633.72;;;33.87;42.49
42945;BME280;28584;42.636;23.294;2023-06-22T07:10:23;167001.75;;;31.54;46.25
42945;BME280;28584;42.636;23.294;2023-06-22T07:12:48;166801.22;;;30.79;46.75
42945;BME280;28584;42.636;23.294;2023-06-22T07:15:13;166622.41;;;30.13;48.64
42945;BME280;28584;42.636;23.294;2023-06-22T07:17:39;166208.28;;;28.60;49.83
42945;BME280;28584;42.636;23.294;2023-06-22T07:20:07;165929.66;;;27.57;54.04
42945;BME280;28584;42.636;23.294;2023-06-22T07:22:41;166281.31;;;28.87;52.73
42945;BME280;28584;42.636;23.294;2023-06-22T07:25:07;166389.56;;;29.27;50.20
42945;BME280;28584;42.636;23.294;2023-06-22T07:27:44;165613.41;;;26.39;55.95
42945;BME280;28584;42.636;23.294;2023-06-22T07:30:10;165943.19;;;27.62;55.46
42945;BME280;28584;42.636;23.294;2023-06-22T07:32:36;166064.91;;;28.07;56.35
42945;BME280;28584;42.636;23.294;2023-06-22T07:35:02;166466.72;;;29.56;51.84
42945;BME280;28584;42.636;23.294;2023-06-22T07:37:29;166684.75;;;30.36;48.99
42945;BME280;28584;42.636;23.294;2023-06-22T07:39:55;166142.00;;;28.35;53.91
42945;BME280;28584;42.636;23.294;2023-06-22T07:42:26;166487.09;;;29.63;51.56
42945;BME280;28584;42.636;23.294;2023-06-22T07:44:53;166413.94;;;29.36;50.79
42945;BME280;28584;42.636;23.294;2023-06-22T07:47:18;166113.56;;;28.25;51.93
42945;BME280;28584;42.636;23.294;2023-06-22T07:49:45;166461.34;;;29.54;51.35
42945;BME280;28584;42.636;23.294;2023-06-22T07:52:10;166504.66;;;29.70;49.90
42945;BME280;28584;42.636;23.294;2023-06-22T07:54:36;166656.31;;;30.26;49.95
42945;BME280;28584;42.636;23.294;2023-06-22T07:57:01;166673.94;;;30.32;48.73
42945;BME280;28584;42.636;23.294;2023-06-22T07:59:27;166530.41;;;29.79;50.04
42945;BME280;28584;42.636;23.294;2023-06-22T08:01:52;166382.81;;;29.25;51.47
42945;BME280;28584;42.636;23.294;2023-06-22T08:04:17;166443.72;;;29.47;51.25
42945;BME280;28584;42.636;23.294;2023-06-22T08:06:43;166248.84;;;28.75;52.97
42945;BME280;28584;42.636;23.294;2023-06-22T08:09:08;165963.44;;;27.69;55.33
42945;BME280;28584;42.636;23.294;2023-06-22T08:11:34;165954.00;;;27.66;54.22
42945;BME280;28584;42.636;23.294;2023-06-22T08:13:59;165801.22;;;27.09;55.97
42945;BME280;28584;42.636;23.294;2023-06-22T08:16:24;165972.91;;;27.73;56.27
42945;BME280;28584;42.636;23.294;2023-06-22T08:18:50;166167.72;;;28.45;53.11
42945;BME280;28584;42.636;23.294;2023-06-22T08:21:15;166286.75;;;28.89;52.31
42945;BME280;28584;42.636;23.294;2023-06-22T08:23:41;165945.88;;;27.63;56.74
42945;BME280;28584;42.636;23.294;2023-06-22T08:26:06;166021.63;;;27.91;55.82
42945;BME280;28584;42.636;23.294;2023-06-22T08:28:31;166441.03;;;29.46;51.95
42945;BME280;28584;42.636;23.294;2023-06-22T08:30:57;166478.97;;;29.60;51.96
42945;BME280;28584;42.636;23.294;2023-06-22T08:33:23;166573.69;;;29.95;50.60
42945;BME280;28584;42.636;23.294;2023-06-22T08:35:54;166611.59;;;30.09;50.69
42945;BME280;28584;42.636;23.294;2023-06-22T08:38:20;166621.09;;;30.13;49.10
42945;BME280;28584;42.636;23.294;2023-06-22T08:40:45;166728.09;;;30.52;50.17
42945;BME280;28584;42.636;23.294;2023-06-22T08:43:11;166596.69;;;30.04;48.89
42945;BME280;28584;42.636;23.294;2023-06-22T08:45:36;166189.34;;;28.53;52.25
42945;BME280;28584;42.636;23.294;2023-06-22T08:48:02;166200.16;;;28.57;52.86
42945;BME280;28584;42.636;23.294;2023-06-22T08:50:27;166127.06;;;28.30;55.00
42945;BME280;28584;42.636;23.294;2023-06-22T08:52:53;166622.41;;;30.13;51.06
42945;BME280;28584;42.636;23.294;2023-06-22T08:55:18;166487.09;;;29.63;51.12
42945;BME280;28584;42.636;23.294;2023-06-22T08:57:43;166794.47;;;30.77;50.18
42945;BME280;28584;42.636;23.294;2023-06-22T09:00:09;166717.22;;;30.48;48.38
42945;BME280;28584;42.636;23.294;2023-06-22T09:02:45;166642.78;;;30.21;47.22
42945;BME280;28584;42.636;23.294;2023-06-22T09:05:11;166841.88;;;30.94;46.80
42945;BME280;28584;42.636;23.294;2023-06-22T09:07:36;167302.72;;;32.65;44.11
42945;BME280;28584;42.636;23.294;2023-06-22T09:10:02;167370.53;;;32.90;42.98
42945;BME280;28584;42.636;23.294;2023-06-22T09:12:30;166928.59;;;31.26;44.18
42945;BME280;28584;42.636;23.294;2023-06-22T09:14:56;166660.38;;;30.27;44.96
42945;BME280;28584;42.636;23.294;2023-06-22T09:17:22;166772.75;;;30.69;43.63
42945;BME280;28584;42.636;23.294;2023-06-22T09:19:47;166919.09;;;31.23;43.59
42945;BME280;28584;42.636;23.294;2023-06-22T09:22:13;167409.88;;;33.04;39.94
42945;BME280;28584;42.636;23.294;2023-06-22T09:24:39;167211.84;;;32.31;41.31
42945;BME280;28584;42.636;23.294;2023-06-22T09:27:05;167762.63;;;34.35;39.53
42945;BME280;28584;42.636;23.294;2023-06-22T09:29:30;167217.28;;;32.33;41.67
42945;BME280;28584;42.636;23.294;2023-06-22T09:31:59;166990.94;;;31.50;43.33
42945;BME280;28584;42.636;23.294;2023-06-22T09:34:24;166961.09;;;31.38;44.06
42945;BME280;28584;42.636;23.294;2023-06-22T09:36:49;167514.28;;;33.43;40.10
42945;BME280;28584;42.636;23.294;2023-06-22T09:39:15;167400.34;;;33.01;41.07
42945;BME280;28584;42.636;23.294;2023-06-22T09:41:40;167348.81;;;32.82;40.60
42945;BME280;28584;42.636;23.294;2023-06-22T09:44:06;167731.41;;;34.23;38.79
42945;BME280;28584;42.636;23.294;2023-06-22T09:46:31;167380.03;;;32.93;38.93
42945;BME280;28584;42.636;23.294;2023-06-22T09:48:57;167655.41;;;33.95;39.19
42945;BME280;28584;42.636;23.294;2023-06-22T09:51:23;167842.69;;;34.64;37.52
42945;BME280;28584;42.636;23.294;2023-06-22T09:53:49;167633.72;;;33.87;37.67
42945;BME280;28584;42.636;23.294;2023-06-22T09:56:15;167064.06;;;31.77;41.66
42945;BME280;28584;42.636;23.294;2023-06-22T09:58:44;167652.69;;;33.94;38.45
42945;BME280;28584;42.636;23.294;2023-06-22T10:01:11;168000.19;;;35.22;35.86
42945;BME280;28584;42.636;23.294;2023-06-22T10:03:37;168049.09;;;35.40;35.56
42945;BME280;28584;42.636;23.294;2023-06-22T10:06:02;168136.00;;;35.72;35.37
42945;BME280;28584;42.636;23.294;2023-06-22T10:08:28;168288.19;;;36.29;34.26
42945;BME280;28584;42.636;23.294;2023-06-22T10:10:53;168182.22;;;35.89;34.14
42945;BME280;28584;42.636;23.294;2023-06-22T10:13:19;168323.50;;;36.42;34.47
42945;BME280;28584;42.636;23.294;2023-06-22T10:15:45;168455.31;;;36.90;33.07
42945;BME280;28584;42.636;23.294;2023-06-22T10:18:16;168339.78;;;36.48;31.78
42945;BME280;28584;42.636;23.294;2023-06-22T10:20:42;168380.56;;;36.63;31.75
42945;BME280;28584;42.636;23.294;2023-06-22T10:23:08;168417.25;;;36.76;32.56
42945;BME280;28584;42.636;23.294;2023-06-22T10:25:33;168381.88;;;36.63;31.96
42945;BME280;28584;42.636;23.294;2023-06-22T10:27:58;167555.00;;;33.58;36.67
42945;BME280;28584;42.636;23.294;2023-06-22T10:30:24;167959.47;;;35.07;33.75
42945;BME280;28584;42.636;23.294;2023-06-22T10:32:49;168115.63;;;35.65;33.15
42945;BME280;28584;42.636;23.294;2023-06-22T10:35:15;168111.56;;;35.63;33.24
42945;BME280;28584;42.636;23.294;2023-06-22T10:37:43;167967.63;;;35.10;35.11
42945;BME280;28584;42.636;23.294;2023-06-22T10:40:09;168129.19;;;35.70;33.97
42945;BME280;28584;42.636;23.294;2023-06-22T10:42:34;167380.03;;;32.93;36.55
42945;BME280;28584;42.636;23.294;2023-06-22T10:45:00;167526.50;;;33.47;35.97
42945;BME280;28584;42.636;23.294;2023-06-22T10:47:25;167316.25;;;32.70;36.99
42945;BME280;28584;42.636;23.294;2023-06-22T10:49:50;167267.44;;;32.52;36.28
42945;BME280;28584;42.636;23.294;2023-06-22T10:52:16;167405.78;;;33.03;36.56
42945;BME280;28584;42.636;23.294;2023-06-22T10:54:41;167495.31;;;33.36;35.66
42945;BME280;28584;42.636;23.294;2023-06-22T10:57:07;167819.59;;;34.56;33.68
42945;BME280;28584;42.636;23.294;2023-06-22T10:59:32;168019.19;;;35.29;33.50
42945;BME280;28584;42.636;23.294;2023-06-22T11:01:58;168123.78;;;35.68;33.41
42945;BME280;28584;42.636;23.294;2023-06-22T11:04:24;168241.97;;;36.12;32.73
42945;BME280;28584;42.636;23.294;2023-06-22T11:06:49;168342.53;;;36.49;30.68
42945;BME280;28584;42.636;23.294;2023-06-22T11:09:16;168632.00;;;37.55;30.36
42945;BME280;28584;42.636;23.294;2023-06-22T11:11:46;168700.00;;;37.80;31.09
42945;BME280;28584;42.636;23.294;2023-06-22T11:14:11;169067.22;;;39.16;29.15
42945;BME280;28584;42.636;23.294;2023-06-22T11:16:36;169146.19;;;39.45;27.91
42945;BME280;28584;42.636;23.294;2023-06-22T11:19:02;169335.31;;;40.14;27.33
42945;BME280;28584;42.636;23.294;2023-06-22T11:21:28;169611.75;;;41.16;26.25
42945;BME280;28584;42.636;23.294;2023-06-22T11:23:53;169587.22;;;41.07;25.51
42945;BME280;28584;42.636;23.294;2023-06-22T11:26:19;169673.00;;;41.39;25.75
42945;BME280;28584;42.636;23.294;2023-06-22T11:28:46;169602.19;;;41.13;26.26
42945;BME280;28584;42.636;23.294;2023-06-22T11:31:11;169727.53;;;41.59;26.11
42945;BME280;28584;42.636;23.294;2023-06-22T11:33:37;169501.44;;;40.76;27.26
42945;BME280;28584;42.636;23.294;2023-06-22T11:36:02;169138.03;;;39.42;28.71
42945;BME280;28584;42.636;23.294;2023-06-22T11:38:28;168918.97;;;38.61;28.47
42945;BME280;28584;42.636;23.294;2023-06-22T11:40:54;168876.78;;;38.46;29.14
42945;BME280;28584;42.636;23.294;2023-06-22T11:43:19;168557.25;;;37.28;31.40
42945;BME280;28584;42.636;23.294;2023-06-22T11:45:45;168430.88;;;36.81;30.81
42945;BME280;28584;42.636;23.294;2023-06-22T11:48:10;168232.44;;;36.08;31.26
42945;BME280;28584;42.636;23.294;2023-06-22T11:50:35;167867.13;;;34.73;33.50
42945;BME280;28584;42.636;23.294;2023-06-22T11:53:02;167826.44;;;34.58;36.19
42945;BME280;28584;42.636;23.294;2023-06-22T11:55:28;167732.75;;;34.24;39.56
42945;BME280;28584;42.636;23.294;2023-06-22T11:57:55;167413.94;;;33.06;38.57
42945;BME280;28584;42.636;23.294;2023-06-22T12:00:21;167428.84;;;33.11;40.68
42945;BME280;28584;42.636;23.294;2023-06-22T12:02:49;167380.03;;;32.93;42.00
42945;BME280;28584;42.636;23.294;2023-06-22T12:05:19;167397.66;;;33.00;40.44
42945;BME280;28584;42.636;23.294;2023-06-22T12:07:46;167485.78;;;33.32;41.49
42945;BME280;28584;42.636;23.294;2023-06-22T12:10:11;167107.47;;;31.93;45.47
42945;BME280;28584;42.636;23.294;2023-06-22T12:12:37;166993.63;;;31.51;46.86
42945;BME280;28584;42.636;23.294;2023-06-22T12:15:02;167210.47;;;32.31;45.38
42945;BME280;28584;42.636;23.294;2023-06-22T12:17:29;166909.59;;;31.19;45.57
42945;BME280;28584;42.636;23.294;2023-06-22T12:19:55;166812.09;;;30.83;46.05
42945;BME280;28584;42.636;23.294;2023-06-22T12:22:20;166885.19;;;31.10;47.50
42945;BME280;28584;42.636;23.294;2023-06-22T12:24:46;166844.59;;;30.95;46.96
42945;BME280;28584;42.636;23.294;2023-06-22T12:27:11;166625.16;;;30.14;47.01
42945;BME280;28584;42.636;23.294;2023-06-22T12:29:36;166304.31;;;28.95;49.15
42945;BME280;28584;42.636;23.294;2023-06-22T12:32:02;166056.78;;;28.04;56.05
42945;BME280;28584;42.636;23.294;2023-06-22T12:34:28;165605.31;;;26.36;67.61
42945;BME280;28584;42.636;23.294;2023-06-22T12:36:53;165194.78;;;24.84;100.00
42945;BME280;28584;42.636;23.294;2023-06-22T12:39:19;164779.25;;;23.30;100.00
42945;BME280;28584;42.636;23.294;2023-06-22T12:41:45;164574.34;;;22.54;100.00